Time;durP1;ratioP1;P1;durP2;ratioP2;P2;SDS_P1;SDS_P2;PMS_P1;PMS_P2;Temp;Humidity;BMP_temperature;BMP_pressure;BME280_temperature;BME280_humidity;BME280_pressure;Samples;Min_cycle;Max_cycle;Signal;HPM_P1;HPM_P2
2022/06/06 00:01:54;;;;;;;;;;;25.10;51.30;;;;;;1544218;76;760;-60
2022/06/06 00:03:56;;;;;;;;;;;25.10;51.30;;;;;;1542337;76;626;-60
2022/06/06 00:05:58;;;;;;;;;;;25.10;51.30;;;;;;1544136;75;1118;-60
2022/06/06 00:08:00;;;;;;;;;;;25.10;51.20;;;;;;1543751;75;774;-59
2022/06/06 00:10:03;;;;;;;;;;;25.10;51.30;;;;;;1544591;75;894;-58
2022/06/06 00:12:05;;;;;;;;;;;25.10;51.30;;;;;;1543837;76;1616;-59
2022/06/06 00:14:07;;;;;;;;;;;25.20;51.30;;;;;;1543017;76;745;-60
2022/06/06 00:16:09;;;;;;;;;;;25.10;51.20;;;;;;1541978;76;1142;-60
2022/06/06 00:18:10;;;;;;;;;;;25.10;51.30;;;;;;1544252;75;766;-58
2022/06/06 00:20:12;;;;;;;;;;;25.10;51.30;;;;;;1545246;75;1949;-58
2022/06/06 00:22:14;;;;;;;;;;;25.20;51.30;;;;;;1543363;76;725;-60
2022/06/06 00:24:16;;;;;;;;;;;25.20;51.30;;;;;;1544371;75;724;-58
2022/06/06 00:26:18;;;;;;;;;;;25.20;51.20;;;;;;1542523;76;1621;-60
2022/06/06 00:28:20;;;;;;;;;;;25.10;51.10;;;;;;1539330;75;728;-60
2022/06/06 00:30:22;;;;;;;;;;;25.20;51.10;;;;;;1544710;76;750;-59
2022/06/06 00:34:51;;;;;;;;;;;25.10;51.10;;;;;;1536844;75;1606;-61
2022/06/06 00:36:53;;;;;;;;;;;25.10;51.00;;;;;;1543600;75;1189;-59
2022/06/06 00:38:55;;;;;;;;;;;25.10;51.00;;;;;;1543911;76;1919;-60
2022/06/06 00:40:57;;;;;;;;;;;25.10;51.10;;;;;;1544066;76;1488;-61
2022/06/06 00:43:00;;;;;;;;;;;25.20;51.20;;;;;;1543646;75;788;-59
2022/06/06 00:45:25;;;;;;;;;;;25.10;51.20;;;;;;1543657;75;680;-60
2022/06/06 00:47:27;;;;;;;;;;;25.20;51.10;;;;;;1544959;75;1601;-60
2022/06/06 00:49:31;;;;;;;;;;;25.10;51.10;;;;;;1544160;76;733;-60
2022/06/06 00:51:33;;;;;;;;;;;25.10;51.10;;;;;;1537955;76;1909;-59
2022/06/06 00:53:42;;;;;;;;;;;25.20;51.10;;;;;;1511252;77;1563;-60
2022/06/06 00:55:46;;;;;;;;;;;25.20;51.00;;;;;;1541547;75;1090;-59
2022/06/06 00:57:53;;;;;;;;;;;25.30;51.00;;;;;;1548168;76;759;-60
2022/06/06 00:59:55;;;;;;;;;;;25.20;51.00;;;;;;1540839;76;2002;-57
2022/06/06 01:01:57;;;;;;;;;;;25.20;51.00;;;;;;1543531;75;627;-60
2022/06/06 01:04:00;;;;;;;;;;;25.20;51.00;;;;;;1538838;76;752;-60
2022/06/06 01:06:01;;;;;;;;;;;25.10;51.00;;;;;;1542877;76;1177;-60
2022/06/06 01:08:04;;;;;;;;;;;25.20;51.00;;;;;;1542221;75;1571;-60
2022/06/06 01:10:06;;;;;;;;;;;25.20;51.00;;;;;;1548330;75;692;-60
2022/06/06 01:12:09;;;;;;;;;;;25.20;51.00;;;;;;1543096;75;721;-58
2022/06/06 01:14:12;;;;;;;;;;;25.10;50.90;;;;;;1544208;76;745;-58
2022/06/06 01:16:18;;;;;;;;;;;25.20;51.00;;;;;;1542642;75;1093;-60
2022/06/06 01:18:40;;;;;;;;;;;25.20;50.90;;;;;;1541704;76;2005;-59
2022/06/06 01:20:46;;;;;;;;;;;25.30;50.90;;;;;;1461573;80;1947;-59
2022/06/06 01:22:53;;;;;;;;;;;25.20;50.90;;;;;;1453583;80;1849;-59
2022/06/06 01:25:05;;;;;;;;;;;25.20;50.90;;;;;;1448863;80;712;-61
2022/06/06 01:27:25;;;;;;;;;;;25.20;50.90;;;;;;1541906;75;1076;-59
2022/06/06 01:29:28;;;;;;;;;;;25.20;50.90;;;;;;1550896;76;761;-60
2022/06/06 01:31:31;;;;;;;;;;;25.30;50.90;;;;;;1555263;75;760;-61
2022/06/06 01:33:35;;;;;;;;;;;25.20;50.90;;;;;;1527509;76;686;-58
2022/06/06 01:35:39;;;;;;;;;;;25.20;50.90;;;;;;1537502;76;1936;-59
2022/06/06 01:37:41;;;;;;;;;;;25.20;51.00;;;;;;1545799;75;1506;-60
2022/06/06 01:39:43;;;;;;;;;;;25.20;51.00;;;;;;1541977;76;1928;-59
2022/06/06 01:41:47;;;;;;;;;;;25.20;51.00;;;;;;1540502;76;710;-60
2022/06/06 01:43:53;;;;;;;;;;;25.20;51.00;;;;;;1534819;75;734;-60
2022/06/06 01:45:57;;;;;;;;;;;25.30;50.90;;;;;;1540706;75;1168;-59
2022/06/06 01:48:07;;;;;;;;;;;25.20;50.90;;;;;;1527662;75;761;-60
2022/06/06 01:50:09;;;;;;;;;;;25.30;50.80;;;;;;1540539;76;1528;-57
2022/06/06 01:52:12;;;;;;;;;;;25.30;50.90;;;;;;1545317;75;683;-60
2022/06/06 01:54:17;;;;;;;;;;;25.30;50.90;;;;;;1540064;76;701;-59
2022/06/06 01:56:20;;;;;;;;;;;25.30;50.90;;;;;;1544150;75;1158;-61
2022/06/06 01:58:23;;;;;;;;;;;25.30;50.90;;;;;;1550030;75;669;-60
2022/06/06 02:00:25;;;;;;;;;;;25.20;51.00;;;;;;1549360;75;1939;-59
2022/06/06 02:02:27;;;;;;;;;;;25.30;50.90;;;;;;1537629;76;674;-59
2022/06/06 02:04:29;;;;;;;;;;;25.30;50.90;;;;;;1538321;75;1572;-60
2022/06/06 02:06:31;;;;;;;;;;;25.30;50.80;;;;;;1541249;75;1150;-58
2022/06/06 02:08:33;;;;;;;;;;;25.30;50.90;;;;;;1539874;75;736;-59
2022/06/06 02:10:35;;;;;;;;;;;25.30;50.90;;;;;;1553090;76;740;-58
2022/06/06 02:12:40;;;;;;;;;;;25.30;50.80;;;;;;1544661;75;770;-60
2022/06/06 02:14:42;;;;;;;;;;;25.30;50.80;;;;;;1544010;75;675;-61
2022/06/06 02:16:44;;;;;;;;;;;25.30;50.80;;;;;;1543825;76;1138;-61
2022/06/06 02:18:46;;;;;;;;;;;25.30;50.80;;;;;;1531463;75;1479;-58
2022/06/06 02:20:48;;;;;;;;;;;25.30;50.70;;;;;;1552627;76;1938;-58
2022/06/06 02:22:50;;;;;;;;;;;25.30;50.80;;;;;;1544089;76;674;-57
2022/06/06 02:24:52;;;;;;;;;;;25.30;50.80;;;;;;1554080;75;931;-57
2022/06/06 02:26:53;;;;;;;;;;;25.20;50.80;;;;;;1544081;75;1106;-59
2022/06/06 02:28:55;;;;;;;;;;;25.30;50.80;;;;;;1549429;76;666;-60
2022/06/06 02:30:57;;;;;;;;;;;25.30;50.80;;;;;;1545169;75;790;-58
2022/06/06 02:32:59;;;;;;;;;;;25.20;50.80;;;;;;1542871;76;1315;-57
2022/06/06 02:35:01;;;;;;;;;;;25.30;50.90;;;;;;1540973;75;689;-59
2022/06/06 02:37:03;;;;;;;;;;;25.30;50.90;;;;;;1547608;75;1097;-60
2022/06/06 02:39:05;;;;;;;;;;;25.20;50.90;;;;;;1546291;75;747;-59
2022/06/06 02:41:09;;;;;;;;;;;25.30;50.80;;;;;;1554548;76;1951;-60
2022/06/06 02:43:12;;;;;;;;;;;25.30;50.80;;;;;;1547083;75;700;-60
2022/06/06 02:45:18;;;;;;;;;;;25.20;50.90;;;;;;1542747;75;1151;-60
2022/06/06 02:47:17;;;;;;;;;;;25.20;50.90;;;;;;1549651;75;1589;-60
2022/06/06 02:49:19;;;;;;;;;;;25.30;50.80;;;;;;1545418;75;763;-59
2022/06/06 02:51:21;;;;;;;;;;;25.30;50.90;;;;;;1539842;75;770;-59
2022/06/06 02:53:23;;;;;;;;;;;25.20;50.90;;;;;;1552043;75;685;-60
2022/06/06 02:55:25;;;;;;;;;;;25.30;50.90;;;;;;1543413;76;1153;-60
2022/06/06 02:57:26;;;;;;;;;;;25.30;50.90;;;;;;1542994;76;671;-59
2022/06/06 02:59:28;;;;;;;;;;;25.30;50.90;;;;;;1541829;76;1950;-61
2022/06/06 03:01:30;;;;;;;;;;;25.30;50.80;;;;;;1544494;76;1549;-61
2022/06/06 03:03:32;;;;;;;;;;;25.30;50.90;;;;;;1542977;75;847;-61
2022/06/06 03:05:36;;;;;;;;;;;25.30;50.80;;;;;;1547471;75;1150;-60
2022/06/06 03:07:54;;;;;;;;;;;25.30;50.80;;;;;;1498867;77;997;-61
2022/06/06 03:10:14;;;;;;;;;;;25.30;50.80;;;;;;1544155;75;729;-60
2022/06/06 03:12:21;;;;;;;;;;;25.30;50.90;;;;;;1549205;76;685;-61
2022/06/06 03:14:27;;;;;;;;;;;25.30;50.90;;;;;;1539909;75;1346;-60
2022/06/06 03:21:23;;;;;;;;;;;25.30;50.90;;;;;;1534520;75;1869;-58
2022/06/06 03:23:29;;;;;;;;;;;25.30;50.90;;;;;;1534945;76;1770;-61
2022/06/06 03:25:49;;;;;;;;;;;25.30;50.90;;;;;;1541370;76;1090;-60
2022/06/06 03:27:55;;;;;;;;;;;25.30;50.90;;;;;;1553420;75;773;-59
2022/06/06 03:30:02;;;;;;;;;;;25.30;50.80;;;;;;1544246;76;1712;-59
2022/06/06 03:32:24;;;;;;;;;;;25.30;50.70;;;;;;1534940;75;1011;-60
2022/06/06 03:34:36;;;;;;;;;;;25.30;50.70;;;;;;1539122;75;705;-59
2022/06/06 03:36:43;;;;;;;;;;;25.40;50.70;;;;;;1539715;75;1921;-60
2022/06/06 03:38:47;;;;;;;;;;;25.30;50.70;;;;;;1535881;76;768;-59
2022/06/06 03:40:53;;;;;;;;;;;25.40;50.70;;;;;;1537522;75;1940;-58
2022/06/06 03:42:56;;;;;;;;;;;25.30;50.70;;;;;;1518494;76;1651;-60
2022/06/06 03:45:03;;;;;;;;;;;25.40;50.60;;;;;;1543982;76;1904;-60
2022/06/06 03:47:07;;;;;;;;;;;25.40;50.70;;;;;;1544112;76;1102;-59
2022/06/06 03:49:13;;;;;;;;;;;25.30;50.60;;;;;;1546693;75;822;-60
2022/06/06 03:51:27;;;;;;;;;;;25.40;50.60;;;;;;1543571;76;654;-60
2022/06/06 03:53:30;;;;;;;;;;;25.40;50.60;;;;;;1543112;75;816;-60
2022/06/06 03:55:34;;;;;;;;;;;25.40;50.60;;;;;;1544302;76;1145;-57
2022/06/06 03:57:36;;;;;;;;;;;25.40;50.60;;;;;;1543968;76;1366;-59
2022/06/06 03:59:38;;;;;;;;;;;25.40;50.50;;;;;;1539358;76;1947;-58
2022/06/06 04:01:40;;;;;;;;;;;25.30;50.60;;;;;;1534948;75;793;-60
2022/06/06 04:03:43;;;;;;;;;;;25.30;50.50;;;;;;1549215;75;702;-60
2022/06/06 04:05:45;;;;;;;;;;;25.30;50.50;;;;;;1548436;76;1144;-60
2022/06/06 04:07:47;;;;;;;;;;;25.30;50.50;;;;;;1543367;75;732;-58
2022/06/06 04:09:52;;;;;;;;;;;25.40;50.50;;;;;;1542751;75;872;-60
2022/06/06 04:11:57;;;;;;;;;;;25.40;50.50;;;;;;1543837;76;1715;-59
2022/06/06 04:14:06;;;;;;;;;;;25.40;50.40;;;;;;1539747;75;1912;-58
2022/06/06 04:16:10;;;;;;;;;;;25.40;50.40;;;;;;1544094;75;1158;-61
2022/06/06 04:18:19;;;;;;;;;;;25.40;50.40;;;;;;1545167;76;1969;-60
2022/06/06 04:20:25;;;;;;;;;;;25.40;50.50;;;;;;1539466;75;1935;-59
2022/06/06 04:22:31;;;;;;;;;;;25.40;50.50;;;;;;1538932;75;674;-59
2022/06/06 04:24:53;;;;;;;;;;;25.30;50.50;;;;;;1542281;76;1929;-58
2022/06/06 04:26:59;;;;;;;;;;;25.30;50.50;;;;;;1544562;76;1117;-58
2022/06/06 04:29:05;;;;;;;;;;;25.40;50.50;;;;;;1549506;75;775;-58
2022/06/06 04:31:15;;;;;;;;;;;25.40;50.50;;;;;;1535639;75;657;-58
2022/06/06 04:33:18;;;;;;;;;;;25.40;50.50;;;;;;1542219;76;765;-59
2022/06/06 04:35:34;;;;;;;;;;;25.30;50.50;;;;;;1542988;75;1174;-58
2022/06/06 04:37:54;;;;;;;;;;;25.40;50.50;;;;;;1543601;75;1923;-58
2022/06/06 04:39:57;;;;;;;;;;;25.40;50.50;;;;;;1534894;76;1940;-60
2022/06/06 04:42:01;;;;;;;;;;;25.40;50.50;;;;;;1543978;76;1142;-59
2022/06/06 04:44:13;;;;;;;;;;;25.30;50.50;;;;;;1543988;76;1901;-61
2022/06/06 04:46:22;;;;;;;;;;;25.40;50.50;;;;;;1538071;75;1142;-60
2022/06/06 04:48:24;;;;;;;;;;;25.30;50.50;;;;;;1544284;75;674;-60
2022/06/06 04:50:26;;;;;;;;;;;25.30;50.50;;;;;;1543448;76;966;-59
2022/06/06 04:52:28;;;;;;;;;;;25.30;50.50;;;;;;1544414;75;641;-59
2022/06/06 04:54:31;;;;;;;;;;;25.40;50.50;;;;;;1544080;76;1693;-59
2022/06/06 04:56:33;;;;;;;;;;;25.30;50.60;;;;;;1543828;75;1156;-60
2022/06/06 04:58:35;;;;;;;;;;;25.40;50.50;;;;;;1543921;75;695;-56
2022/06/06 05:00:37;;;;;;;;;;;25.40;50.50;;;;;;1543652;76;1927;-54
2022/06/06 05:02:39;;;;;;;;;;;25.40;50.50;;;;;;1551353;76;699;-58
2022/06/06 05:04:41;;;;;;;;;;;25.40;50.50;;;;;;1546389;75;678;-56
2022/06/06 05:07:00;;;;;;;;;;;25.40;50.50;;;;;;1543288;75;1581;-56
2022/06/06 05:09:03;;;;;;;;;;;25.40;50.50;;;;;;1535147;76;2005;-59
2022/06/06 05:11:07;;;;;;;;;;;25.40;50.50;;;;;;1542059;75;756;-54
2022/06/06 05:13:16;;;;;;;;;;;25.50;50.50;;;;;;1542194;75;822;-58
2022/06/06 05:15:38;;;;;;;;;;;25.40;50.50;;;;;;1539443;76;1590;-60
2022/06/06 05:18:01;;;;;;;;;;;25.40;50.40;;;;;;1544331;76;723;-57
2022/06/06 05:20:05;;;;;;;;;;;25.50;50.50;;;;;;1489200;79;1939;-59
2022/06/06 05:22:11;;;;;;;;;;;25.50;50.50;;;;;;1486059;78;1597;-60
2022/06/06 05:24:15;;;;;;;;;;;25.50;50.50;;;;;;1478473;79;1911;-60
2022/06/06 05:26:21;;;;;;;;;;;25.40;50.50;;;;;;1541588;76;1172;-58
2022/06/06 05:28:31;;;;;;;;;;;25.50;50.50;;;;;;1544494;75;1582;-56
2022/06/06 05:30:34;;;;;;;;;;;25.50;50.40;;;;;;1540825;75;823;-56
2022/06/06 05:32:50;;;;;;;;;;;25.60;50.40;;;;;;1543589;75;711;-60
2022/06/06 05:34:59;;;;;;;;;;;25.70;50.30;;;;;;1545772;76;2132;-58
2022/06/06 05:37:20;;;;;;;;;;;25.60;50.30;;;;;;1542625;76;1868;-56
2022/06/06 05:39:40;;;;;;;;;;;25.60;50.20;;;;;;1545969;76;709;-60
2022/06/06 05:41:47;;;;;;;;;;;25.70;50.20;;;;;;1544483;76;1916;-58
2022/06/06 05:43:50;;;;;;;;;;;25.60;50.20;;;;;;1540239;75;772;-58
2022/06/06 05:46:11;;;;;;;;;;;25.70;50.10;;;;;;1554236;75;1140;-57
2022/06/06 05:48:31;;;;;;;;;;;25.70;50.10;;;;;;1549147;75;704;-61
2022/06/06 05:50:52;;;;;;;;;;;25.80;50.10;;;;;;1540336;76;1582;-59
2022/06/06 05:53:01;;;;;;;;;;;25.70;50.10;;;;;;1544319;75;1708;-58
2022/06/06 05:55:05;;;;;;;;;;;25.60;50.10;;;;;;1542055;76;1734;-57
2022/06/06 05:57:20;;;;;;;;;;;25.70;50.20;;;;;;1555178;75;1094;-60
2022/06/06 05:59:30;;;;;;;;;;;25.70;50.20;;;;;;1541953;75;1749;-58
2022/06/06 06:01:33;;;;;;;;;;;25.60;50.20;;;;;;1542571;75;1943;-59
2022/06/06 06:03:43;;;;;;;;;;;25.70;50.20;;;;;;1549737;76;1904;-56
2022/06/06 06:05:49;;;;;;;;;;;25.70;50.20;;;;;;1536715;76;2045;-59
2022/06/06 06:08:10;;;;;;;;;;;25.70;50.10;;;;;;1550514;75;2123;-56
2022/06/06 06:10:15;;;;;;;;;;;25.70;50.20;;;;;;1552332;75;719;-56
2022/06/06 06:12:35;;;;;;;;;;;25.70;50.20;;;;;;1550428;75;686;-60
2022/06/06 06:14:42;;;;;;;;;;;25.70;50.20;;;;;;1535900;76;740;-54
2022/06/06 06:16:45;;;;;;;;;;;25.60;50.20;;;;;;1538994;75;1966;-58
2022/06/06 06:18:51;;;;;;;;;;;25.70;50.20;;;;;;1537509;76;1846;-58
2022/06/06 06:20:55;;;;;;;;;;;25.70;50.10;;;;;;1541655;76;1928;-59
2022/06/06 06:23:01;;;;;;;;;;;25.80;50.20;;;;;;1543142;75;1868;-60
2022/06/06 06:25:03;;;;;;;;;;;25.80;50.10;;;;;;1548702;76;1485;-56
2022/06/06 06:27:06;;;;;;;;;;;25.80;50.10;;;;;;1546816;76;1094;-56
2022/06/06 06:29:08;;;;;;;;;;;25.80;50.00;;;;;;1550807;75;679;-59
2022/06/06 06:31:15;;;;;;;;;;;25.70;50.00;;;;;;1538614;75;1546;-57
2022/06/06 06:33:21;;;;;;;;;;;25.80;50.00;;;;;;1543404;75;817;-58
2022/06/06 06:35:34;;;;;;;;;;;25.80;50.00;;;;;;1553139;76;1756;-60
2022/06/06 06:37:53;;;;;;;;;;;25.70;50.00;;;;;;1545752;75;1925;-60
2022/06/06 06:40:13;;;;;;;;;;;25.80;50.00;;;;;;1544190;75;764;-59
2022/06/06 06:42:26;;;;;;;;;;;25.80;50.20;;;;;;1543792;75;1940;-56
2022/06/06 06:44:31;;;;;;;;;;;25.90;50.10;;;;;;1544147;75;662;-58
2022/06/06 06:46:43;;;;;;;;;;;25.90;50.00;;;;;;1544735;76;1614;-57
2022/06/06 06:48:45;;;;;;;;;;;25.80;50.00;;;;;;1545562;75;763;-60
2022/06/06 06:50:52;;;;;;;;;;;25.80;50.00;;;;;;1545911;75;802;-57
2022/06/06 06:52:56;;;;;;;;;;;25.70;49.90;;;;;;1545454;76;773;-56
2022/06/06 06:55:08;;;;;;;;;;;25.60;50.00;;;;;;1540080;75;1975;-57
2022/06/06 06:57:12;;;;;;;;;;;25.70;50.00;;;;;;1543774;75;2116;-58
2022/06/06 06:59:18;;;;;;;;;;;25.60;50.00;;;;;;1543544;75;1558;-55
2022/06/06 07:01:37;;;;;;;;;;;25.50;50.10;;;;;;1542496;75;1933;-56
2022/06/06 07:09:01;;;;;;;;;;;25.50;50.20;;;;;;1540448;75;1698;-56
2022/06/06 07:11:10;;;;;;;;;;;25.50;50.30;;;;;;1543849;75;842;-56
2022/06/06 07:13:17;;;;;;;;;;;25.50;50.40;;;;;;1543678;75;801;-59
2022/06/06 07:15:39;;;;;;;;;;;25.50;50.40;;;;;;1542386;75;1242;-56
2022/06/06 07:17:42;;;;;;;;;;;25.50;50.30;;;;;;1542922;75;1973;-56
2022/06/06 07:19:55;;;;;;;;;;;25.50;50.40;;;;;;1536746;76;1026;-57
2022/06/06 07:21:57;;;;;;;;;;;25.50;50.30;;;;;;1540607;76;1932;-59
2022/06/06 07:23:59;;;;;;;;;;;25.50;50.40;;;;;;1547111;76;724;-59
2022/06/06 07:26:01;;;;;;;;;;;25.40;50.30;;;;;;1540555;75;1089;-58
2022/06/06 07:28:04;;;;;;;;;;;25.40;50.30;;;;;;1543786;75;1551;-57
2022/06/06 07:30:06;;;;;;;;;;;25.50;50.30;;;;;;1543649;75;774;-56
2022/06/06 07:32:10;;;;;;;;;;;25.40;50.30;;;;;;1545735;75;761;-57
2022/06/06 07:34:30;;;;;;;;;;;25.50;50.30;;;;;;1542177;75;742;-58
2022/06/06 07:36:45;;;;;;;;;;;25.50;50.40;;;;;;1542004;75;1151;-59
2022/06/06 07:38:52;;;;;;;;;;;25.40;50.30;;;;;;1547307;76;1760;-59
2022/06/06 07:40:55;;;;;;;;;;;25.40;50.30;;;;;;1545270;76;1939;-59
2022/06/06 07:42:59;;;;;;;;;;;25.50;50.40;;;;;;1540909;75;1759;-59
2022/06/06 07:45:06;;;;;;;;;;;25.50;50.40;;;;;;1543874;75;733;-56
2022/06/06 07:47:12;;;;;;;;;;;25.40;50.40;;;;;;1540640;76;2063;-60
2022/06/06 07:49:16;;;;;;;;;;;25.40;50.40;;;;;;1543640;76;821;-59
2022/06/06 07:51:22;;;;;;;;;;;25.50;50.30;;;;;;1539946;75;680;-57
2022/06/06 07:53:26;;;;;;;;;;;25.40;50.30;;;;;;1540282;76;689;-59
2022/06/06 07:55:31;;;;;;;;;;;25.50;50.30;;;;;;1543506;75;1139;-55
2022/06/06 07:57:38;;;;;;;;;;;25.50;50.40;;;;;;1545545;75;674;-58
2022/06/06 07:59:50;;;;;;;;;;;25.40;50.30;;;;;;1546302;75;681;-59
2022/06/06 08:02:03;;;;;;;;;;;25.50;50.40;;;;;;1543343;75;1931;-56
2022/06/06 08:04:06;;;;;;;;;;;25.40;50.30;;;;;;1534557;75;1918;-59
2022/06/06 08:06:16;;;;;;;;;;;25.50;50.40;;;;;;1540240;75;1794;-59
2022/06/06 08:08:38;;;;;;;;;;;25.50;50.40;;;;;;1545962;75;750;-59
2022/06/06 08:10:43;;;;;;;;;;;25.40;50.40;;;;;;1543863;76;1539;-58
2022/06/06 08:12:49;;;;;;;;;;;25.40;50.40;;;;;;1540097;75;627;-55
2022/06/06 08:15:08;;;;;;;;;;;25.40;50.40;;;;;;1543375;75;804;-57
2022/06/06 08:17:14;;;;;;;;;;;25.40;50.30;;;;;;1544084;75;1109;-57
2022/06/06 08:19:36;;;;;;;;;;;25.40;50.30;;;;;;1516506;75;1679;-58
2022/06/06 08:21:39;;;;;;;;;;;25.40;50.40;;;;;;1535181;75;1926;-58
2022/06/06 08:23:41;;;;;;;;;;;25.40;50.40;;;;;;1543866;76;1549;-59
2022/06/06 08:25:43;;;;;;;;;;;25.40;50.40;;;;;;1544094;75;1112;-58
2022/06/06 08:27:47;;;;;;;;;;;25.40;50.50;;;;;;1554225;75;717;-57
2022/06/06 08:29:49;;;;;;;;;;;25.40;50.40;;;;;;1544344;76;781;-58
2022/06/06 08:31:51;;;;;;;;;;;25.30;50.20;;;;;;1553569;75;692;-57
2022/06/06 08:33:52;;;;;;;;;;;25.30;50.10;;;;;;1553406;75;724;-58
2022/06/06 08:36:12;;;;;;;;;;;25.30;50.20;;;;;;1543829;75;1144;-57
2022/06/06 08:38:25;;;;;;;;;;;25.30;50.20;;;;;;1544103;75;1444;-60
2022/06/06 08:40:43;;;;;;;;;;;25.30;50.20;;;;;;1545092;75;809;-58
2022/06/06 08:42:56;;;;;;;;;;;25.20;50.20;;;;;;1543993;75;1941;-55
2022/06/06 08:45:03;;;;;;;;;;;25.30;50.30;;;;;;1537991;75;637;-60
2022/06/06 08:47:07;;;;;;;;;;;25.20;50.20;;;;;;1545880;75;1938;-58
2022/06/06 08:50:44;;;;;;;;;;;25.20;50.20;;;;;;1539390;76;1787;-56
2022/06/06 08:51:30;;;;;;;;;;;25.20;50.10;;;;;;1537431;75;1445;-58
2022/06/06 08:53:50;;;;;;;;;;;25.20;50.00;;;;;;1543143;76;1582;-60
2022/06/06 08:55:54;;;;;;;;;;;25.20;50.00;;;;;;1547228;75;1176;-59
2022/06/06 08:58:16;;;;;;;;;;;25.20;50.00;;;;;;1543980;75;788;-59
2022/06/06 09:00:22;;;;;;;;;;;25.20;50.00;;;;;;1466421;79;1069;-58
2022/06/06 09:02:32;;;;;;;;;;;24.80;49.90;;;;;;1467786;80;1944;-61
2022/06/06 09:04:51;;;;;;;;;;;25.20;50.10;;;;;;1477881;79;1863;-58
2022/06/06 09:06:56;;;;;;;;;;;25.20;50.20;;;;;;1542665;75;1605;-60
2022/06/06 09:08:59;;;;;;;;;;;25.20;50.10;;;;;;1545765;75;1977;-60
2022/06/06 09:11:09;;;;;;;;;;;25.10;50.20;;;;;;1541055;75;1740;-61
2022/06/06 09:13:12;;;;;;;;;;;25.20;50.20;;;;;;1539671;76;1280;-61
2022/06/06 09:15:19;;;;;;;;;;;25.20;50.20;;;;;;1543715;76;1164;-59
2022/06/06 09:17:37;;;;;;;;;;;25.20;50.30;;;;;;1545582;76;775;-60
2022/06/06 09:19:42;;;;;;;;;;;25.30;50.30;;;;;;1540369;75;1881;-60
2022/06/06 09:21:46;;;;;;;;;;;25.20;50.00;;;;;;1547464;76;1955;-60
2022/06/06 09:23:58;;;;;;;;;;;25.30;49.90;;;;;;1548484;75;699;-59
2022/06/06 09:26:17;;;;;;;;;;;25.20;49.90;;;;;;1542552;75;1151;-59
2022/06/06 09:28:33;;;;;;;;;;;25.20;49.80;;;;;;1542370;75;797;-59
2022/06/06 09:30:45;;;;;;;;;;;25.20;49.70;;;;;;1542770;76;683;-60
2022/06/06 09:33:04;;;;;;;;;;;25.20;49.70;;;;;;1543005;75;678;-59
2022/06/06 09:35:17;;;;;;;;;;;25.20;49.90;;;;;;1539921;75;1598;-59
2022/06/06 09:37:20;;;;;;;;;;;25.10;50.00;;;;;;1543977;75;707;-61
2022/06/06 09:39:33;;;;;;;;;;;25.10;50.00;;;;;;1542637;75;690;-59
2022/06/06 09:41:39;;;;;;;;;;;25.10;49.90;;;;;;1542234;76;1916;-58
2022/06/06 09:43:42;;;;;;;;;;;25.20;50.00;;;;;;1546394;75;675;-58
2022/06/06 09:45:49;;;;;;;;;;;25.20;50.00;;;;;;1542876;75;1906;-58
2022/06/06 09:47:53;;;;;;;;;;;25.20;50.00;;;;;;1544286;76;767;-59
2022/06/06 09:49:56;;;;;;;;;;;25.20;50.00;;;;;;1540719;75;1952;-59
2022/06/06 09:52:05;;;;;;;;;;;25.20;50.10;;;;;;1540442;75;1380;-59
2022/06/06 09:59:27;;;;;;;;;;;25.10;49.80;;;;;;1542060;75;1674;-59
2022/06/06 10:01:45;;;;;;;;;;;25.20;50.00;;;;;;1542630;76;1928;-58
2022/06/06 10:03:49;;;;;;;;;;;25.20;50.00;;;;;;1542736;76;1451;-59
2022/06/06 10:06:04;;;;;;;;;;;25.10;49.90;;;;;;1499456;75;1129;-58
2022/06/06 10:08:25;;;;;;;;;;;25.10;49.70;;;;;;1547003;76;677;-58
2022/06/06 10:10:45;;;;;;;;;;;25.10;49.60;;;;;;1543957;76;673;-58
2022/06/06 10:12:57;;;;;;;;;;;25.10;49.70;;;;;;1544540;76;662;-59
2022/06/06 10:15:10;;;;;;;;;;;24.70;49.50;;;;;;1543600;75;711;-59
2022/06/06 10:17:13;;;;;;;;;;;25.10;49.50;;;;;;1547533;75;1535;-59
2022/06/06 10:19:17;;;;;;;;;;;25.10;49.50;;;;;;1545248;76;778;-60
2022/06/06 10:21:27;;;;;;;;;;;25.10;49.50;;;;;;1545025;75;1795;-61
2022/06/06 10:23:33;;;;;;;;;;;25.10;49.60;;;;;;1541924;75;2027;-60
2022/06/06 10:25:36;;;;;;;;;;;25.10;49.70;;;;;;1485555;76;1115;-58
2022/06/06 10:27:56;;;;;;;;;;;25.10;49.80;;;;;;1547266;75;884;-61
2022/06/06 10:30:12;;;;;;;;;;;25.20;50.20;;;;;;1540806;75;649;-60
2022/06/06 10:32:18;;;;;;;;;;;25.20;50.20;;;;;;1542692;75;776;-59
2022/06/06 10:34:25;;;;;;;;;;;25.20;50.10;;;;;;1539667;75;1331;-60
2022/06/06 10:36:29;;;;;;;;;;;25.30;50.00;;;;;;1545232;75;1156;-61
2022/06/06 10:38:50;;;;;;;;;;;25.30;49.80;;;;;;1547303;75;725;-59
2022/06/06 10:41:10;;;;;;;;;;;25.30;49.70;;;;;;1543183;75;700;-59
2022/06/06 10:43:16;;;;;;;;;;;25.20;49.70;;;;;;1542614;75;1914;-60
2022/06/06 10:45:26;;;;;;;;;;;25.30;49.80;;;;;;1550793;75;1973;-59
2022/06/06 10:47:29;;;;;;;;;;;25.30;50.00;;;;;;1546237;75;704;-61
2022/06/06 10:49:36;;;;;;;;;;;25.20;49.80;;;;;;1543566;75;701;-60
2022/06/06 10:51:45;;;;;;;;;;;25.30;49.90;;;;;;1548838;75;1922;-58
2022/06/06 10:54:07;;;;;;;;;;;25.30;49.70;;;;;;1543986;75;1708;-59
2022/06/06 10:56:11;;;;;;;;;;;25.20;49.60;;;;;;1543430;75;1900;-61
2022/06/06 10:58:31;;;;;;;;;;;25.20;49.70;;;;;;1543223;75;2270;-61
2022/06/06 11:00:43;;;;;;;;;;;25.20;49.80;;;;;;1543745;75;844;-60
2022/06/06 11:02:47;;;;;;;;;;;25.10;49.80;;;;;;1551939;75;1945;-61
2022/06/06 11:04:50;;;;;;;;;;;25.10;49.80;;;;;;1540709;75;858;-61
2022/06/06 11:07:12;;;;;;;;;;;25.20;49.70;;;;;;1541200;76;1144;-60
2022/06/06 11:09:15;;;;;;;;;;;25.20;49.60;;;;;;1545728;75;681;-59
2022/06/06 11:11:25;;;;;;;;;;;25.20;49.50;;;;;;1544649;75;697;-59
2022/06/06 11:13:29;;;;;;;;;;;25.20;49.40;;;;;;1545362;75;1588;-61
2022/06/06 11:15:44;;;;;;;;;;;25.30;49.60;;;;;;1544732;75;1156;-61
2022/06/06 11:17:48;;;;;;;;;;;25.20;49.40;;;;;;1542573;75;1858;-59
2022/06/06 11:20:09;;;;;;;;;;;25.10;49.70;;;;;;1542284;75;792;-59
2022/06/06 11:22:25;;;;;;;;;;;25.10;49.60;;;;;;1542443;75;1932;-60
2022/06/06 11:24:35;;;;;;;;;;;25.10;49.50;;;;;;1543394;75;697;-60
2022/06/06 11:26:44;;;;;;;;;;;25.10;49.30;;;;;;1543549;75;1682;-59
2022/06/06 11:28:54;;;;;;;;;;;25.10;49.10;;;;;;1544788;76;712;-59
2022/06/06 11:31:13;;;;;;;;;;;25.10;49.00;;;;;;1541011;75;702;-60
2022/06/06 11:33:16;;;;;;;;;;;25.10;48.90;;;;;;1541069;75;1917;-60
2022/06/06 11:35:20;;;;;;;;;;;25.10;48.70;;;;;;1545015;75;1134;-59
2022/06/06 11:37:29;;;;;;;;;;;25.10;48.70;;;;;;1542734;75;1057;-58
2022/06/06 11:39:38;;;;;;;;;;;25.10;48.80;;;;;;1543346;75;1866;-59
2022/06/06 11:41:59;;;;;;;;;;;25.10;48.80;;;;;;1545831;75;1469;-59
2022/06/06 11:44:19;;;;;;;;;;;25.20;48.70;;;;;;1541901;75;760;-59
2022/06/06 11:46:31;;;;;;;;;;;25.20;48.60;;;;;;1543910;75;1173;-59
2022/06/06 11:48:41;;;;;;;;;;;25.10;48.60;;;;;;1456444;80;994;-59
2022/06/06 11:50:47;;;;;;;;;;;25.10;48.60;;;;;;1527322;75;1955;-60
2022/06/06 11:52:57;;;;;;;;;;;25.10;48.40;;;;;;1540511;75;806;-60
2022/06/06 11:55:09;;;;;;;;;;;25.10;48.10;;;;;;1545960;75;1589;-59
2022/06/06 11:57:30;;;;;;;;;;;25.10;48.10;;;;;;1548622;75;1123;-60
2022/06/06 11:59:39;;;;;;;;;;;25.10;48.20;;;;;;1551336;75;799;-59
2022/06/06 12:01:52;;;;;;;;;;;25.10;48.20;;;;;;1533468;75;1939;-60
2022/06/06 12:04:12;;;;;;;;;;;25.10;47.90;;;;;;1540031;75;1940;-59
2022/06/06 12:06:22;;;;;;;;;;;25.10;47.70;;;;;;1546152;75;1201;-59
2022/06/06 12:08:25;;;;;;;;;;;25.10;47.80;;;;;;1558046;75;704;-62
2022/06/06 12:10:28;;;;;;;;;;;25.10;48.00;;;;;;1554102;76;1915;-59
2022/06/06 12:12:40;;;;;;;;;;;25.10;47.90;;;;;;1543552;76;686;-59
2022/06/06 12:14:47;;;;;;;;;;;25.10;48.00;;;;;;1541326;75;883;-60
2022/06/06 12:17:06;;;;;;;;;;;25.10;48.00;;;;;;1542327;75;1861;-59
2022/06/06 12:19:19;;;;;;;;;;;25.10;47.50;;;;;;1538458;76;767;-59
2022/06/06 12:21:31;;;;;;;;;;;25.10;47.80;;;;;;1550434;76;1902;-59
2022/06/06 12:23:43;;;;;;;;;;;25.00;47.90;;;;;;1539810;76;1956;-61
2022/06/06 12:25:53;;;;;;;;;;;25.10;47.90;;;;;;1540614;75;1485;-60
2022/06/06 12:28:12;;;;;;;;;;;25.10;48.10;;;;;;1550976;75;670;-60
2022/06/06 12:30:32;;;;;;;;;;;25.10;47.90;;;;;;1548721;75;1480;-59
2022/06/06 12:32:36;;;;;;;;;;;25.20;47.70;;;;;;1542302;75;670;-62
2022/06/06 12:34:42;;;;;;;;;;;25.10;47.40;;;;;;1542663;76;2028;-61
2022/06/06 12:36:57;;;;;;;;;;;25.10;47.20;;;;;;1545286;76;1590;-59
2022/06/06 12:39:01;;;;;;;;;;;25.10;47.20;;;;;;1540636;75;761;-60
2022/06/06 12:41:14;;;;;;;;;;;25.10;47.30;;;;;;1523630;75;1973;-60
2022/06/06 12:43:32;;;;;;;;;;;25.10;47.20;;;;;;1541072;75;1956;-60
2022/06/06 12:45:39;;;;;;;;;;;25.00;47.20;;;;;;1546359;75;1155;-60
2022/06/06 12:47:45;;;;;;;;;;;25.10;47.30;;;;;;1538277;75;675;-59
2022/06/06 12:50:05;;;;;;;;;;;25.10;47.40;;;;;;1530523;75;1081;-60
2022/06/06 12:52:21;;;;;;;;;;;25.10;47.50;;;;;;1540789;75;1544;-60
2022/06/06 12:56:57;;;;;;;;;;;25.10;47.00;;;;;;1537228;75;1163;-59
2022/06/06 12:59:04;;;;;;;;;;;25.00;46.30;;;;;;1551384;75;670;-60
2022/06/06 13:01:38;;;;;;;;;;;25.00;46.90;;;;;;1551703;76;755;-59